createdAt,value
2019-03-21T00:02:25.357Z,3.00
2019-03-21T00:04:54.104Z,2.67
2019-03-21T00:07:22.889Z,2.50
2019-03-21T00:10:19.144Z,3.17
2019-03-21T00:12:47.815Z,2.30
2019-03-21T00:15:24.996Z,3.30
2019-03-21T00:17:56.241Z,2.63
2019-03-21T00:20:24.984Z,2.60
2019-03-21T00:22:53.664Z,2.77
2019-03-21T00:25:24.504Z,2.83
2019-03-21T00:27:53.273Z,3.17
2019-03-21T00:30:24.281Z,2.93
2019-03-21T00:32:54.024Z,3.07
2019-03-21T00:35:22.712Z,2.97
2019-03-21T00:37:51.328Z,3.23
2019-03-21T00:40:25.584Z,2.87
2019-03-21T00:42:54.539Z,3.53
2019-03-21T00:45:23.289Z,2.50
2019-03-21T00:47:51.894Z,3.30
2019-03-21T00:50:23.661Z,3.30
2019-03-21T00:52:55.148Z,3.47
2019-03-21T00:55:25.963Z,2.87
2019-03-21T00:57:54.709Z,3.87
2019-03-21T01:00:28.984Z,3.13
2019-03-21T01:02:57.740Z,2.93
2019-03-21T01:05:26.476Z,2.93
2019-03-21T01:07:55.161Z,3.10
2019-03-21T01:10:29.009Z,3.97
2019-03-21T01:12:57.616Z,3.23
2019-03-21T01:15:26.287Z,3.20
2019-03-21T01:17:54.966Z,3.30
2019-03-21T01:20:23.710Z,3.20
2019-03-21T01:22:52.384Z,2.83
2019-03-21T01:25:30.909Z,2.70
2019-03-21T01:27:59.644Z,2.90
2019-03-21T01:30:28.416Z,2.50
2019-03-21T01:32:57.013Z,2.70
2019-03-21T01:35:25.697Z,2.83
2019-03-21T01:37:54.364Z,2.97
2019-03-21T01:40:41.090Z,3.03
2019-03-21T01:43:09.760Z,3.10
2019-03-21T01:45:38.440Z,3.90
2019-03-21T01:48:07.116Z,3.07
2019-03-21T01:50:40.776Z,2.87
2019-03-21T01:53:09.440Z,3.17
2019-03-21T01:55:38.128Z,3.37
2019-03-21T01:58:06.876Z,3.87
2019-03-21T02:00:38.289Z,3.33
2019-03-21T02:03:07.237Z,3.03
2019-03-21T02:05:36.074Z,3.50
2019-03-21T02:08:05.193Z,3.50
2019-03-21T02:10:34.628Z,3.43
2019-03-21T02:13:03.427Z,3.93
2019-03-21T02:15:32.269Z,3.97
2019-03-21T02:18:00.948Z,3.77
2019-03-21T02:20:29.625Z,2.97
2019-03-21T02:22:58.366Z,3.70
2019-03-21T02:25:41.984Z,3.67
2019-03-21T02:28:10.720Z,3.43
2019-03-21T02:30:40.480Z,2.93
2019-03-21T02:33:14.885Z,3.30
2019-03-21T02:35:43.572Z,3.00
2019-03-21T02:38:12.231Z,3.40
2019-03-21T02:40:42.786Z,4.23
2019-03-21T02:43:11.494Z,6.30
2019-03-21T02:45:40.210Z,2.90
2019-03-21T02:48:08.868Z,3.60
2019-03-21T02:50:42.617Z,3.70
2019-03-21T02:53:11.202Z,3.17
2019-03-21T02:55:39.831Z,3.50
2019-03-21T02:58:08.404Z,3.60
2019-03-21T03:00:38.613Z,4.00
2019-03-21T03:03:07.942Z,4.00
2019-03-21T03:05:37.142Z,3.10
2019-03-21T03:08:06.769Z,3.47
2019-03-21T03:10:43.978Z,4.00
2019-03-21T03:13:12.545Z,3.97
2019-03-21T03:15:42.062Z,3.17
2019-03-21T03:18:13.441Z,3.27
2019-03-21T03:20:42.011Z,4.77
2019-03-21T03:23:10.673Z,5.00
2019-03-21T03:25:39.247Z,4.07
2019-03-21T03:28:19.647Z,3.27
2019-03-21T03:30:49.472Z,3.80
2019-03-21T03:33:18.106Z,3.23
2019-03-21T03:35:46.755Z,3.73
2019-03-21T03:38:15.436Z,3.97
2019-03-21T03:41:02.085Z,3.07
2019-03-21T03:43:30.827Z,3.60
2019-03-21T03:45:59.463Z,3.80
2019-03-21T03:48:28.778Z,3.43
2019-03-21T03:50:57.352Z,3.43
2019-03-21T03:53:26.326Z,3.47
2019-03-21T03:55:54.898Z,3.33
2019-03-21T03:58:28.906Z,3.50
2019-03-21T04:00:58.141Z,3.20
2019-03-21T04:03:27.988Z,3.53
2019-03-21T04:05:57.026Z,3.30
2019-03-21T04:08:25.603Z,3.03
2019-03-21T04:10:55.820Z,3.60
2019-03-21T04:13:24.398Z,2.73
2019-03-21T04:15:54.049Z,3.10
2019-03-21T04:18:24.674Z,3.40
2019-03-21T04:20:59.444Z,2.23
2019-03-21T04:23:28.077Z,2.90
2019-03-21T04:26:24.322Z,2.37
2019-03-21T04:28:52.971Z,3.30
2019-03-21T04:31:21.675Z,2.90
2019-03-21T04:33:53.397Z,2.57
2019-03-21T04:36:21.962Z,2.67
2019-03-21T04:38:50.546Z,2.60
2019-03-21T04:41:19.110Z,2.50
2019-03-21T04:43:47.694Z,2.07
2019-03-21T04:46:16.371Z,2.33
2019-03-21T04:48:44.987Z,2.53
2019-03-21T04:51:13.630Z,1.90
2019-03-21T04:53:42.208Z,1.63
2019-03-21T04:56:10.786Z,2.23
2019-03-21T04:58:39.353Z,2.10
2019-03-21T05:01:08.002Z,2.53
2019-03-21T05:03:36.690Z,1.73
2019-03-21T05:06:05.414Z,2.53
2019-03-21T05:08:33.982Z,3.00
2019-03-21T05:11:02.663Z,1.93
2019-03-21T05:13:31.296Z,1.70
2019-03-21T05:15:59.931Z,2.40
2019-03-21T05:18:34.827Z,1.70
2019-03-21T05:21:06.030Z,1.87
2019-03-21T05:23:34.606Z,1.60
2019-03-21T05:26:04.208Z,1.47
2019-03-21T05:28:33.046Z,2.43
2019-03-21T05:31:13.834Z,1.30
2019-03-21T05:33:42.815Z,1.60
2019-03-21T05:36:11.655Z,1.30
2019-03-21T05:38:40.227Z,1.37
2019-03-21T05:41:08.870Z,1.67
2019-03-21T05:43:57.295Z,1.40
2019-03-21T05:46:27.110Z,1.43
2019-03-21T05:48:55.850Z,1.40
2019-03-21T05:51:24.497Z,1.17
2019-03-21T05:53:53.059Z,1.03
2019-03-21T05:56:21.647Z,1.10
2019-03-21T05:58:50.375Z,1.00
2019-03-21T06:01:18.982Z,1.30
2019-03-21T06:03:46.935Z,1.10
2019-03-21T06:06:33.770Z,1.00
2019-03-21T06:09:02.340Z,0.90
2019-03-21T06:11:51.894Z,0.50
2019-03-21T06:14:20.458Z,0.93
2019-03-21T06:16:49.094Z,0.70
2019-03-21T06:19:23.410Z,0.60
2019-03-21T06:22:00.679Z,0.73
2019-03-21T06:24:50.585Z,0.90
2019-03-21T06:27:27.786Z,0.80
2019-03-21T06:29:56.782Z,0.90
2019-03-21T06:32:27.456Z,0.60
2019-03-21T06:34:57.257Z,0.80
2019-03-21T06:37:28.492Z,0.77
2019-03-21T06:39:56.587Z,0.70
2019-03-21T06:42:25.516Z,0.80
2019-03-21T06:44:54.156Z,1.50
2019-03-21T06:47:22.879Z,0.70
2019-03-21T06:49:51.455Z,0.60
2019-03-21T06:52:20.091Z,0.60
2019-03-21T06:54:48.678Z,0.60
2019-03-21T06:57:17.318Z,0.67
2019-03-21T06:59:45.897Z,0.80
2019-03-21T07:02:14.458Z,0.60
2019-03-21T07:04:43.046Z,0.70
2019-03-21T07:07:11.609Z,0.63
2019-03-21T07:09:40.190Z,0.47
2019-03-21T07:12:09.035Z,0.60
2019-03-21T07:14:37.761Z,0.50
2019-03-21T07:17:06.406Z,0.50
2019-03-21T07:19:34.974Z,0.50
2019-03-21T07:22:03.628Z,0.60
2019-03-21T07:24:32.266Z,0.40
2019-03-21T07:27:00.878Z,0.50
2019-03-21T07:29:29.498Z,0.50
2019-03-21T07:31:58.073Z,0.60
2019-03-21T07:34:26.718Z,0.70
2019-03-21T07:36:55.354Z,0.50
2019-03-21T07:39:23.931Z,0.40
2019-03-21T07:41:52.498Z,0.60
2019-03-21T07:44:21.083Z,0.70
2019-03-21T07:46:49.719Z,0.50
2019-03-21T07:49:18.387Z,0.50
2019-03-21T07:51:46.970Z,0.60
2019-03-21T07:54:15.538Z,0.70
2019-03-21T07:56:44.210Z,0.60
2019-03-21T07:59:12.854Z,0.50
2019-03-21T08:01:41.434Z,0.70
2019-03-21T08:04:10.066Z,0.80
2019-03-21T08:06:38.648Z,0.73
2019-03-21T08:09:07.861Z,0.80
2019-03-21T08:11:36.466Z,0.77
2019-03-21T08:14:05.422Z,1.03
2019-03-21T08:16:33.990Z,0.80
2019-03-21T08:19:02.635Z,0.70
2019-03-21T08:21:31.202Z,0.90
2019-03-21T08:23:59.916Z,0.70
2019-03-21T08:26:28.482Z,1.53
2019-03-21T08:28:57.064Z,1.10
2019-03-21T08:31:25.630Z,1.00
2019-03-21T08:33:54.288Z,1.10
2019-03-21T08:36:23.002Z,1.23
2019-03-21T08:38:51.614Z,1.43
2019-03-21T08:41:20.261Z,1.30
2019-03-21T08:43:48.833Z,1.20
2019-03-21T08:46:17.417Z,1.27
2019-03-21T08:48:46.070Z,1.30
2019-03-21T08:51:14.647Z,1.23
2019-03-21T08:53:43.283Z,1.50
2019-03-21T08:56:11.973Z,1.60
2019-03-21T08:58:40.622Z,1.53
2019-03-21T09:01:09.186Z,1.13
2019-03-21T09:03:37.765Z,1.40
2019-03-21T09:06:06.574Z,1.47
2019-03-21T09:08:35.241Z,1.30
2019-03-21T09:11:04.154Z,1.60
2019-03-21T09:13:32.810Z,1.60
2019-03-21T09:16:01.378Z,1.67
2019-03-21T09:18:29.966Z,1.70
2019-03-21T09:20:58.562Z,1.50
2019-03-21T09:23:27.235Z,1.40
2019-03-21T09:25:55.819Z,1.60
2019-03-21T09:28:24.411Z,1.53
2019-03-21T09:30:52.991Z,1.80
2019-03-21T09:33:21.558Z,1.97
2019-03-21T09:35:50.133Z,1.93
2019-03-21T09:38:18.702Z,2.20
2019-03-21T09:40:47.787Z,2.27
2019-03-21T09:43:16.478Z,1.80
2019-03-21T09:45:45.114Z,2.30
2019-03-21T09:48:13.766Z,1.80
2019-03-21T09:50:42.337Z,2.20
2019-03-21T09:53:10.918Z,1.90
2019-03-21T09:55:39.484Z,1.90
2019-03-21T09:58:08.064Z,1.77
2019-03-21T10:00:37.269Z,1.90
2019-03-21T10:03:06.397Z,2.30
2019-03-21T10:05:35.045Z,2.10
2019-03-21T10:08:03.887Z,2.20
2019-03-21T10:10:33.975Z,2.13
2019-03-21T10:13:02.588Z,2.23
2019-03-21T10:15:31.170Z,2.00
2019-03-21T10:17:59.730Z,1.90
2019-03-21T10:20:28.385Z,2.27
2019-03-21T10:22:57.028Z,2.00
2019-03-21T10:25:26.886Z,2.50
2019-03-21T10:27:55.685Z,2.00
2019-03-21T10:30:35.473Z,2.13
2019-03-21T10:33:06.183Z,2.33
2019-03-21T10:35:34.891Z,1.83
2019-03-21T10:38:04.111Z,1.77
2019-03-21T10:40:32.694Z,1.70
2019-03-21T10:43:01.330Z,1.73
2019-03-21T10:45:29.966Z,1.50
2019-03-21T10:47:58.639Z,1.60
2019-03-21T10:50:29.915Z,1.67
2019-03-21T10:52:58.855Z,1.60
2019-03-21T10:55:27.500Z,1.60
2019-03-21T10:57:56.726Z,1.50
2019-03-21T11:00:25.447Z,1.17
2019-03-21T11:02:54.006Z,1.43
2019-03-21T11:05:23.327Z,1.30
2019-03-21T11:07:52.070Z,1.40
2019-03-21T11:10:20.830Z,0.73
2019-03-21T11:12:49.545Z,1.10
2019-03-21T11:15:18.190Z,0.90
2019-03-21T11:17:47.006Z,1.20
2019-03-21T11:20:27.662Z,0.90
2019-03-21T11:22:56.310Z,1.03
2019-03-21T11:25:24.882Z,1.10
2019-03-21T11:27:53.533Z,1.00
2019-03-21T11:30:33.196Z,0.80
2019-03-21T11:33:01.839Z,0.90
2019-03-21T11:35:31.147Z,1.00
2019-03-21T11:38:00.077Z,0.80
2019-03-21T11:40:28.709Z,1.00
2019-03-21T11:42:57.809Z,0.80
2019-03-21T11:45:26.654Z,1.00
2019-03-21T11:47:55.308Z,0.65
2019-03-21T11:50:24.022Z,0.80
2019-03-21T11:52:52.665Z,0.70
2019-03-21T11:55:21.484Z,0.83
2019-03-21T11:57:50.392Z,0.50
2019-03-21T12:00:19.155Z,0.70
2019-03-21T12:02:47.785Z,0.63
2019-03-21T12:05:16.590Z,0.65
2019-03-21T12:07:45.171Z,0.90
2019-03-21T12:10:14.278Z,0.78
2019-03-21T12:12:42.926Z,0.70
2019-03-21T12:15:12.137Z,0.83
2019-03-21T12:17:40.784Z,1.00
2019-03-21T12:20:12.186Z,0.68
2019-03-21T12:22:40.775Z,0.93
2019-03-21T12:25:09.785Z,1.20
2019-03-21T12:27:38.358Z,1.00
2019-03-21T12:30:10.015Z,1.00
2019-03-21T12:32:38.654Z,0.70
2019-03-21T12:35:08.482Z,1.00
2019-03-21T12:37:37.042Z,1.00
2019-03-21T12:40:08.038Z,1.00
2019-03-21T12:42:36.946Z,1.00
2019-03-21T12:45:08.034Z,1.10
2019-03-21T12:47:36.716Z,1.00
2019-03-21T12:50:07.691Z,1.10
2019-03-21T12:52:41.422Z,1.03
2019-03-21T12:55:07.667Z,0.97
2019-03-21T12:57:36.391Z,1.17
2019-03-21T13:00:07.670Z,1.13
2019-03-21T13:02:36.328Z,1.30
2019-03-21T13:05:07.502Z,1.20
2019-03-21T13:07:36.207Z,1.10
2019-03-21T13:10:06.498Z,1.10
2019-03-21T13:12:35.154Z,1.23
2019-03-21T13:15:05.534Z,1.27
2019-03-21T13:17:34.045Z,1.13
2019-03-21T13:20:02.701Z,1.40
2019-03-21T13:22:31.263Z,1.40
2019-03-21T13:24:59.842Z,1.50
2019-03-21T13:27:28.410Z,1.30
2019-03-21T13:29:57.014Z,1.43
2019-03-21T13:32:25.591Z,1.20
2019-03-21T13:34:54.158Z,1.10
2019-03-21T13:37:22.739Z,1.10
2019-03-21T13:39:51.306Z,1.20
2019-03-21T13:42:19.888Z,1.43
2019-03-21T13:44:48.454Z,1.40
2019-03-21T13:47:17.166Z,1.70
2019-03-21T13:49:45.735Z,1.50
2019-03-21T13:52:14.302Z,1.40
2019-03-21T13:54:42.878Z,1.50
2019-03-21T13:57:11.489Z,1.43
2019-03-21T13:59:40.070Z,1.40
2019-03-21T14:02:08.639Z,1.33
2019-03-21T14:04:37.218Z,1.70
2019-03-21T14:07:05.786Z,1.40
2019-03-21T14:09:34.379Z,1.77
2019-03-21T14:12:03.055Z,1.40
2019-03-21T14:14:31.590Z,1.97
2019-03-21T14:17:00.171Z,1.93
2019-03-21T14:19:28.738Z,1.53
2019-03-21T14:21:57.318Z,1.50
2019-03-21T14:24:25.963Z,1.60
2019-03-21T14:26:54.545Z,1.77
2019-03-21T14:29:23.114Z,1.50
2019-03-21T14:31:51.766Z,1.67
2019-03-21T14:34:20.334Z,1.70
2019-03-21T14:36:48.910Z,1.53
2019-03-21T14:39:17.486Z,1.87
2019-03-21T14:41:46.071Z,1.57
2019-03-21T14:44:14.723Z,1.70
2019-03-21T14:46:43.274Z,1.60
2019-03-21T14:49:11.922Z,2.00
2019-03-21T14:51:40.495Z,1.80
2019-03-21T14:54:09.084Z,1.97
2019-03-21T14:56:37.653Z,2.00
2019-03-21T14:59:06.234Z,1.83
2019-03-21T15:01:34.814Z,2.00
2019-03-21T15:04:03.383Z,1.63
2019-03-21T15:06:31.964Z,2.20
2019-03-21T15:09:00.598Z,1.80
2019-03-21T15:11:29.340Z,1.90
2019-03-21T15:13:57.894Z,2.27
2019-03-21T15:16:26.648Z,1.90
2019-03-21T15:18:55.231Z,1.90
2019-03-21T15:21:23.815Z,2.07
2019-03-21T15:23:59.221Z,2.10
2019-03-21T15:26:22.726Z,2.10
2019-03-21T15:28:51.311Z,2.23
2019-03-21T15:31:19.879Z,1.93
2019-03-21T15:33:48.462Z,1.97
2019-03-21T15:36:17.049Z,1.90
2019-03-21T15:38:45.699Z,1.87
2019-03-21T15:41:14.267Z,2.07
2019-03-21T15:43:42.840Z,2.07
2019-03-21T15:46:11.424Z,1.90
2019-03-21T15:48:40.054Z,2.50
2019-03-21T15:51:08.638Z,1.80
2019-03-21T15:53:37.205Z,1.87
2019-03-21T15:56:05.863Z,2.27
2019-03-21T15:58:34.502Z,9.17
2019-03-21T16:01:03.124Z,3.63
2019-03-21T16:03:31.690Z,2.67
2019-03-21T16:06:00.266Z,2.27
2019-03-21T16:08:28.854Z,3.60
2019-03-21T16:10:57.426Z,1.67
2019-03-21T16:13:26.009Z,1.80
2019-03-21T16:15:54.575Z,2.10
2019-03-21T16:18:23.158Z,2.30
2019-03-21T16:20:51.733Z,1.87
2019-03-21T16:23:20.502Z,1.63
2019-03-21T16:25:49.143Z,1.70
2019-03-21T16:28:20.099Z,1.73
2019-03-21T16:30:47.948Z,1.80
2019-03-21T16:33:16.525Z,1.80
2019-03-21T16:35:45.194Z,1.90
2019-03-21T16:38:13.750Z,1.70
2019-03-21T16:40:42.358Z,2.10
2019-03-21T16:43:10.943Z,1.83
2019-03-21T16:45:39.602Z,1.93
2019-03-21T16:48:09.311Z,1.90
2019-03-21T16:50:38.174Z,2.00
2019-03-21T16:53:06.845Z,2.10
2019-03-21T16:55:35.415Z,1.73
2019-03-21T16:58:04.238Z,1.87
2019-03-21T17:00:32.882Z,1.90
2019-03-21T17:03:01.473Z,2.27
2019-03-21T17:05:30.037Z,1.77
2019-03-21T17:08:10.059Z,2.00
2019-03-21T17:10:30.659Z,1.87
2019-03-21T17:12:59.198Z,1.80
2019-03-21T17:15:27.798Z,2.23
2019-03-21T17:17:56.442Z,1.93
2019-03-21T17:20:25.002Z,2.00
2019-03-21T17:22:53.666Z,1.97
2019-03-21T17:25:22.230Z,2.23
2019-03-21T17:27:50.802Z,2.40
2019-03-21T17:30:19.627Z,1.93
2019-03-21T17:32:48.194Z,2.17
2019-03-21T17:35:16.838Z,2.40
2019-03-21T17:37:45.498Z,2.80
2019-03-21T17:40:15.386Z,2.30
2019-03-21T17:42:44.062Z,2.00
2019-03-21T17:45:17.642Z,1.90
2019-03-21T17:47:46.358Z,2.07
2019-03-21T17:50:16.970Z,2.13
2019-03-21T17:52:45.786Z,1.90
2019-03-21T17:55:15.650Z,2.33
2019-03-21T17:57:44.366Z,2.10
2019-03-21T18:00:20.374Z,2.00
2019-03-21T18:02:49.050Z,1.70
2019-03-21T18:05:17.693Z,2.80
2019-03-21T18:07:46.362Z,2.23
2019-03-21T18:10:23.543Z,1.93
2019-03-21T18:12:52.106Z,1.80
2019-03-21T18:15:20.770Z,2.23
2019-03-21T18:17:49.343Z,1.93
2019-03-21T18:20:17.922Z,3.30
2019-03-21T18:22:46.493Z,2.53
2019-03-21T18:25:15.058Z,2.20
2019-03-21T18:27:43.641Z,2.63
2019-03-21T18:30:12.767Z,2.13
2019-03-21T18:32:41.342Z,2.70
2019-03-21T18:35:10.463Z,2.20
2019-03-21T18:37:39.026Z,2.30
2019-03-21T18:40:09.530Z,2.60
2019-03-21T18:42:38.186Z,2.00
2019-03-21T18:45:08.594Z,2.60
2019-03-21T18:47:37.250Z,2.13
2019-03-21T18:50:09.299Z,2.53
2019-03-21T18:52:38.043Z,2.30
2019-03-21T18:55:07.774Z,2.43
2019-03-21T18:57:36.346Z,3.10
2019-03-21T19:00:11.394Z,2.50
2019-03-21T19:02:40.026Z,2.20
2019-03-21T19:05:08.782Z,2.37
2019-03-21T19:07:37.358Z,2.63
2019-03-21T19:10:13.681Z,1.93
2019-03-21T19:12:42.379Z,2.10
2019-03-21T19:15:18.802Z,2.47
2019-03-21T19:17:47.524Z,2.30
2019-03-21T19:20:17.934Z,3.30
2019-03-21T19:22:48.166Z,2.50
2019-03-21T19:25:19.971Z,2.10
2019-03-21T19:27:49.351Z,2.00
2019-03-21T19:30:22.777Z,2.13
2019-03-21T19:32:51.370Z,2.30
2019-03-21T19:35:21.547Z,2.07
2019-03-21T19:37:50.556Z,2.20
2019-03-21T19:40:23.429Z,2.50
2019-03-21T19:42:55.754Z,2.10
2019-03-21T19:45:25.718Z,2.50
2019-03-21T19:47:54.378Z,2.27
2019-03-21T19:50:24.738Z,2.67
2019-03-21T19:52:53.375Z,2.47
2019-03-21T19:55:30.770Z,1.93
2019-03-21T19:57:52.309Z,2.27
2019-03-21T20:00:23.378Z,2.27
2019-03-21T20:02:52.322Z,2.70
2019-03-21T20:05:22.694Z,2.30
2019-03-21T20:07:53.345Z,2.30
2019-03-21T20:10:22.390Z,1.90
2019-03-21T20:12:51.134Z,2.03
2019-03-21T20:15:19.946Z,2.20
2019-03-21T20:17:48.595Z,2.30
2019-03-21T20:20:18.208Z,3.27
2019-03-21T20:22:47.077Z,2.37
2019-03-21T20:25:16.042Z,2.17
2019-03-21T20:27:45.092Z,1.97
2019-03-21T20:30:21.870Z,1.93
2019-03-21T20:32:50.575Z,1.90
2019-03-21T20:35:19.157Z,1.67
2019-03-21T20:37:47.861Z,1.93
2019-03-21T20:40:18.268Z,2.33
2019-03-21T20:42:47.070Z,1.67
2019-03-21T20:45:20.194Z,1.90
2019-03-21T20:47:48.836Z,1.87
2019-03-21T20:50:18.688Z,2.17
2019-03-21T20:52:47.369Z,2.17
2019-03-21T20:55:16.114Z,1.60
2019-03-21T20:57:44.872Z,2.10
2019-03-21T21:00:23.463Z,2.40
2019-03-21T21:02:53.914Z,2.20
2019-03-21T21:05:23.181Z,2.20
2019-03-21T21:07:52.127Z,2.73
2019-03-21T21:10:21.015Z,2.20
2019-03-21T21:12:49.705Z,1.53
2019-03-21T21:15:18.627Z,1.70
2019-03-21T21:17:47.272Z,2.43
2019-03-21T21:20:19.262Z,2.00
2019-03-21T21:22:47.854Z,2.10
2019-03-21T21:25:16.571Z,1.97
2019-03-21T21:27:49.797Z,2.53
2019-03-21T21:30:20.252Z,2.47
2019-03-21T21:32:48.953Z,2.10
2019-03-21T21:35:17.747Z,2.23
2019-03-21T21:37:46.483Z,1.80
2019-03-21T21:40:16.986Z,2.17
2019-03-21T21:42:45.833Z,1.90
2019-03-21T21:45:18.519Z,2.07
2019-03-21T21:47:47.162Z,1.93
2019-03-21T21:50:16.868Z,2.20
2019-03-21T21:52:45.510Z,1.90
2019-03-21T21:55:15.307Z,2.20
2019-03-21T21:57:43.889Z,2.40
2019-03-21T22:00:18.304Z,2.30
2019-03-21T22:02:46.896Z,2.30
2019-03-21T22:05:15.694Z,2.30
2019-03-21T22:07:44.409Z,2.53
2019-03-21T22:10:14.058Z,2.87
2019-03-21T22:12:42.627Z,2.20
2019-03-21T22:15:13.042Z,2.73
2019-03-21T22:17:41.778Z,2.70
2019-03-21T22:20:15.164Z,2.40
2019-03-21T22:22:44.267Z,3.22
2019-03-21T22:25:13.070Z,2.60
2019-03-21T22:27:41.778Z,2.33
2019-03-21T22:30:19.069Z,2.83
2019-03-21T22:32:48.386Z,2.20
2019-03-21T22:35:17.202Z,2.97
2019-03-21T22:37:45.853Z,2.40
2019-03-21T22:40:16.554Z,2.30
2019-03-21T22:42:45.203Z,2.20
2019-03-21T22:45:17.598Z,2.67
2019-03-21T22:47:46.330Z,2.50
2019-03-21T22:50:18.495Z,1.97
2019-03-21T22:52:47.330Z,2.60
2019-03-21T22:55:16.038Z,2.03
2019-03-21T22:57:44.954Z,1.97
2019-03-21T23:00:19.413Z,2.07
2019-03-21T23:02:48.050Z,1.80
2019-03-21T23:05:16.866Z,2.00
2019-03-21T23:07:45.441Z,2.10
2019-03-21T23:10:14.967Z,1.97
2019-03-21T23:12:43.698Z,1.60
2019-03-21T23:15:13.220Z,2.00
2019-03-21T23:17:41.958Z,1.77
2019-03-21T23:20:15.222Z,1.63
2019-03-21T23:22:44.057Z,1.67
2019-03-21T23:25:16.286Z,1.50
2019-03-21T23:27:44.505Z,1.57
2019-03-21T23:30:16.198Z,1.50
2019-03-21T23:32:44.914Z,1.40
2019-03-21T23:35:14.094Z,1.50
2019-03-21T23:37:42.718Z,1.00
2019-03-21T23:40:13.007Z,1.43
2019-03-21T23:42:41.508Z,1.10
2019-03-21T23:45:11.623Z,1.07
2019-03-21T23:47:40.254Z,1.27
2019-03-21T23:50:10.574Z,1.07
2019-03-21T23:52:39.202Z,1.17
2019-03-21T23:55:08.914Z,1.67
2019-03-21T23:57:37.551Z,1.40
